KUGN/UGN METAR and TAF weather

Enter ICAO airport designator
Station Type Date Time Source
KUGN METAR 2020/08/12 17:55 UTC NOAA

KUGN 121755Z 12007KT 10SM CLR 26/12 A3013 RMK AO2 SLP194 T02610117 10261 20167 53004


Station Type Date Time Source
KUGN Decoded METAR 2020/08/12 17:55 UTC NOAA

CHICAGO/WAUKEGAN REGIONAL, IL, United States (KUGN) 42-25N 087-52W
Aug 12, 2020 - 01:55 PM EDT / 2020.08.12 1755 UTC
Wind: from the ESE (120 degrees) at 8 MPH (7 KT):0
Visibility: 10 mile(s):0
Sky conditions: clear
Temperature: 79.0 F (26.1 C)
Dew Point: 53.1 F (11.7 C)
Relative Humidity: 40%
Pressure (altimeter): 30.13 in. Hg (1020 hPa)
Pressure tendency: 0.01 inches (0.4 hPa) higher than three hours ago
ob: KUGN 121755Z 12007KT 10SM CLR 26/12 A3013 RMK AO2 SLP194 T02610117 10261 20167 53004
cycle: 18

Station Type Date Time Source
KUGN TAF UTC NOAA

Error!

Example: see airport list